Time,TemperatureF,DewpointF,PressureIn,WindDirection,WindDirectionDegrees,WindSpeedMPH,WindSpeedGustMPH,Humidity,HourlyPrecipIn,Conditions,Clouds,dailyrainin,SolarRadiationWatts/m^2,SoftwareType,DateUTC
2013-02-19 00:02:00,46.1,35.7,29.95,SW,233,0.0,0.0,67,0.00,RA,,0.00,0.0,WeatherDisplay:10.37,2013-02-19 08:02:00,
2013-02-19 00:07:00,45.9,35.9,29.95,SW,233,0.0,0.0,68,0.00,RA,,0.00,0.0,WeatherDisplay:10.37,2013-02-19 08:07:00,
2013-02-19 00:12:00,45.9,35.9,29.95,NNW,339,0.4,2.3,68,0.00,,,0.00,0.0,WeatherDisplay:10.37,2013-02-19 08:12:00,
2013-02-19 00:17:00,45.9,35.9,29.95,NNW,339,1.2,2.3,68,0.00,,,0.00,0.0,WeatherDisplay:10.37,2013-02-19 08:17:00,
2013-02-19 00:22:00,45.9,35.9,29.95,NNW,339,0.2,1.1,68,0.00,,,0.00,0.0,WeatherDisplay:10.37,2013-02-19 08:22:00,
2013-02-19 00:27:00,46.0,36.0,29.95,NE,41,0.0,0.0,68,0.00,,,0.00,0.0,WeatherDisplay:10.37,2013-02-19 08:27:00,
2013-02-19 00:32:00,46.0,36.0,29.95,ENE,60,0.6,1.1,68,0.00,,,0.00,0.0,WeatherDisplay:10.37,2013-02-19 08:32:00,
2013-02-19 00:37:00,46.0,36.0,29.95,West,263,0.2,0.0,68,0.00,,,0.00,0.0,WeatherDisplay:10.37,2013-02-19 08:37:00,
2013-02-19 00:42:00,46.0,36.4,29.95,ESE,113,0.0,1.1,69,0.00,,,0.00,0.0,WeatherDisplay:10.37,2013-02-19 08:42:00,
2013-02-19 00:47:00,46.0,36.4,29.95,ESE,107,1.9,3.5,69,0.00,,,0.00,0.0,WeatherDisplay:10.37,2013-02-19 08:47:00,
2013-02-19 00:52:00,46.0,36.8,29.95,WNW,292,2.5,4.6,70,0.00,,,0.00,0.0,WeatherDisplay:10.37,2013-02-19 08:52:00,
2013-02-19 00:57:00,46.0,36.8,29.95,NNE,25,2.3,5.8,70,0.00,,,0.00,0.0,WeatherDisplay:10.37,2013-02-19 08:57:00,
2013-02-19 01:02:00,46.0,36.8,29.95,WNW,298,1.1,3.5,70,0.00,,,0.00,0.0,WeatherDisplay:10.37,2013-02-19 09:02:00,
2013-02-19 01:07:00,45.9,37.0,29.95,WNW,286,0.7,2.3,71,0.00,,,0.00,0.0,WeatherDisplay:10.37,2013-02-19 09:07:00,
2013-02-19 01:12:00,45.8,36.9,29.95,SW,215,0.4,1.1,71,0.00,,,0.00,0.0,WeatherDisplay:10.37,2013-02-19 09:12:00,
2013-02-19 01:17:00,45.8,36.9,29.94,SSW,199,1.7,2.3,71,0.00,,,0.00,0.0,WeatherDisplay:10.37,2013-02-19 09:17:00,
2013-02-19 01:22:00,45.7,36.8,29.94,SSW,200,0.0,0.0,71,0.00,,,0.00,0.0,WeatherDisplay:10.37,2013-02-19 09:22:00,
2013-02-19 01:27:00,45.5,36.6,29.94,ESE,116,0.0,0.0,71,0.00,,,0.00,0.0,WeatherDisplay:10.37,2013-02-19 09:27:00,
2013-02-19 01:32:00,45.4,36.9,29.94,NE,38,1.8,3.5,72,0.00,,,0.00,0.0,WeatherDisplay:10.37,2013-02-19 09:32:00,
2013-02-19 01:37:00,45.4,36.9,29.94,NE,38,0.0,0.0,72,0.00,,,0.00,0.0,WeatherDisplay:10.37,2013-02-19 09:37:00,
2013-02-19 01:42:00,45.4,36.9,29.94,ENE,71,1.2,1.2,72,0.00,,,0.00,0.0,WeatherDisplay:10.37,2013-02-19 09:42:00,
2013-02-19 01:47:00,45.5,36.6,29.94,ENE,74,0.0,0.0,71,0.00,,,0.00,0.0,WeatherDisplay:10.37,2013-02-19 09:47:00,
2013-02-19 01:52:00,45.4,36.9,29.94,ENE,74,0.0,0.0,72,0.00,,,0.00,0.0,WeatherDisplay:10.37,2013-02-19 09:52:00,
2013-02-19 01:57:00,45.4,36.9,29.94,ENE,74,0.0,0.0,72,0.00,,,0.00,0.0,WeatherDisplay:10.37,2013-02-19 09:57:00,
2013-02-19 02:02:00,45.2,36.7,29.93,ENE,74,0.0,0.0,72,0.00,,,0.00,0.0,WeatherDisplay:10.37,2013-02-19 10:02:00,
2013-02-19 02:07:00,45.1,37.0,29.93,ENE,74,1.3,2.3,73,0.00,,,0.00,0.0,WeatherDisplay:10.37,2013-02-19 10:07:00,
2013-02-19 02:12:00,45.3,36.8,29.93,West,260,1.4,3.5,72,0.00,,,0.00,0.0,WeatherDisplay:10.37,2013-02-19 10:12:00,
2013-02-19 02:17:00,45.2,37.1,29.93,SE,132,0.1,1.1,73,0.00,,,0.00,0.0,WeatherDisplay:10.37,2013-02-19 10:17:00,
2013-02-19 02:22:00,45.0,36.9,29.93,East,99,0.0,0.0,73,0.00,,,0.00,0.0,WeatherDisplay:10.37,2013-02-19 10:22:00,
2013-02-19 02:27:00,44.9,36.8,29.93,East,101,0.0,1.1,73,0.00,,,0.00,0.0,WeatherDisplay:10.37,2013-02-19 10:27:00,
2013-02-19 02:32:00,44.6,36.8,29.92,East,101,0.0,0.0,74,0.00,,,0.00,0.0,WeatherDisplay:10.37,2013-02-19 10:32:00,
2013-02-19 02:37:00,44.4,37.0,29.92,East,101,0.0,0.0,75,0.00,,,0.00,0.0,WeatherDisplay:10.37,2013-02-19 10:37:00,
2013-02-19 02:42:00,44.5,37.1,29.92,East,101,0.0,1.1,75,0.00,,,0.00,0.0,WeatherDisplay:10.37,2013-02-19 10:42:00,
2013-02-19 02:47:00,44.5,37.1,29.92,East,98,0.0,0.0,75,0.00,,,0.00,0.0,WeatherDisplay:10.37,2013-02-19 10:47:00,
2013-02-19 02:52:00,44.3,36.9,29.91,East,98,0.0,1.1,75,0.00,,,0.00,0.0,WeatherDisplay:10.37,2013-02-19 10:52:00,
2013-02-19 02:57:00,44.0,36.6,29.91,East,96,1.6,2.3,75,0.00,,,0.00,0.0,WeatherDisplay:10.37,2013-02-19 10:57:00,
2013-02-19 03:02:00,44.1,36.7,29.91,East,96,0.0,0.0,75,0.00,,,0.00,0.0,WeatherDisplay:10.37,2013-02-19 11:02:00,
2013-02-19 03:07:00,43.9,36.5,29.91,East,96,0.0,0.0,75,0.00,,,0.00,0.0,WeatherDisplay:10.37,2013-02-19 11:07:00,
2013-02-19 03:12:00,43.7,36.6,29.91,East,96,0.0,0.0,76,0.00,,,0.00,0.0,WeatherDisplay:10.37,2013-02-19 11:12:00,
2013-02-19 03:17:00,43.6,36.5,29.91,East,96,0.0,0.0,76,0.00,,,0.00,0.0,WeatherDisplay:10.37,2013-02-19 11:17:00,
2013-02-19 03:22:00,43.5,36.8,29.91,East,96,0.0,0.0,77,0.00,,,0.00,0.0,WeatherDisplay:10.37,2013-02-19 11:22:00,
2013-02-19 03:27:00,43.1,36.4,29.90,East,96,0.0,0.0,77,0.00,,,0.00,0.0,WeatherDisplay:10.37,2013-02-19 11:27:00,
2013-02-19 03:32:00,43.0,36.3,29.90,East,96,0.0,0.0,77,0.00,,,0.00,0.0,WeatherDisplay:10.37,2013-02-19 11:32:00,
2013-02-19 03:37:00,42.9,36.2,29.90,East,96,2.4,3.5,77,0.00,,,0.00,0.0,WeatherDisplay:10.37,2013-02-19 11:37:00,
2013-02-19 03:42:00,43.0,36.6,29.90,East,96,1.0,2.3,78,0.00,,,0.00,0.0,WeatherDisplay:10.37,2013-02-19 11:42:00,
2013-02-19 03:47:00,43.0,36.3,29.90,East,96,1.4,2.3,77,0.00,,,0.00,0.0,WeatherDisplay:10.37,2013-02-19 11:47:00,
2013-02-19 03:52:00,42.7,36.3,29.90,East,99,1.9,2.3,78,0.00,,,0.00,0.0,WeatherDisplay:10.37,2013-02-19 11:52:00,
2013-02-19 03:57:00,42.7,36.3,29.90,East,99,0.0,0.0,78,0.00,,,0.00,0.0,WeatherDisplay:10.37,2013-02-19 11:57:00,
2013-02-19 04:02:00,42.6,36.2,29.90,East,99,0.0,0.0,78,0.00,,,0.00,0.0,WeatherDisplay:10.37,2013-02-19 12:02:00,
2013-02-19 04:07:00,42.1,35.7,29.89,East,99,1.6,2.3,78,0.00,,,0.00,0.0,WeatherDisplay:10.37,2013-02-19 12:07:00,
2013-02-19 04:12:00,41.6,35.6,29.89,East,99,0.0,0.0,79,0.00,,,0.00,0.0,WeatherDisplay:10.37,2013-02-19 12:12:00,
2013-02-19 04:17:00,41.6,35.9,29.89,East,99,0.0,0.0,80,0.00,,,0.00,0.0,WeatherDisplay:10.37,2013-02-19 12:17:00,
2013-02-19 04:22:00,41.4,35.7,29.89,East,99,0.0,0.0,80,0.00,,,0.00,0.0,WeatherDisplay:10.37,2013-02-19 12:22:00,
2013-02-19 04:27:00,41.4,35.7,29.90,East,99,0.1,1.1,80,0.00,,,0.00,0.0,WeatherDisplay:10.37,2013-02-19 12:27:00,
2013-02-19 04:32:00,41.5,36.1,29.90,East,99,0.0,0.0,81,0.00,,,0.00,0.0,WeatherDisplay:10.37,2013-02-19 12:32:00,
2013-02-19 04:37:00,41.8,36.4,29.89,East,99,0.0,0.0,81,0.00,,,0.00,0.0,WeatherDisplay:10.37,2013-02-19 12:37:00,
2013-02-19 04:42:00,41.9,36.5,29.89,East,99,0.0,0.0,81,0.00,,,0.00,0.0,WeatherDisplay:10.37,2013-02-19 12:42:00,
2013-02-19 04:47:00,42.0,36.9,29.89,East,99,0.0,0.0,82,0.00,,,0.00,0.0,WeatherDisplay:10.37,2013-02-19 12:47:00,
2013-02-19 04:52:00,42.1,37.0,29.89,East,99,0.9,2.3,82,0.00,,,0.00,0.0,WeatherDisplay:10.37,2013-02-19 12:52:00,
2013-02-19 04:57:00,42.0,36.9,29.89,East,96,0.0,0.0,82,0.00,,,0.00,0.0,WeatherDisplay:10.37,2013-02-19 12:57:00,
2013-02-19 05:02:00,42.1,37.3,29.89,East,96,0.0,0.0,83,0.01,RA,,0.01,0.0,WeatherDisplay:10.37,2013-02-19 13:02:00,
2013-02-19 05:07:00,42.2,37.7,29.89,East,96,0.0,0.0,84,0.01,RA,,0.01,0.0,WeatherDisplay:10.37,2013-02-19 13:07:00,
2013-02-19 05:12:00,42.4,37.9,29.89,East,96,0.0,0.0,84,0.01,,,0.01,0.0,WeatherDisplay:10.37,2013-02-19 13:12:00,
2013-02-19 05:17:00,42.2,38.0,29.89,East,96,0.6,2.3,85,0.02,RA,,0.02,0.0,WeatherDisplay:10.37,2013-02-19 13:17:00,
2013-02-19 05:22:00,42.5,38.3,29.89,East,96,0.0,0.0,85,0.02,RA,,0.02,0.0,WeatherDisplay:10.37,2013-02-19 13:22:00,
2013-02-19 05:27:00,42.7,38.8,29.89,NW,311,1.9,1.9,86,0.02,,,0.02,0.0,WeatherDisplay:10.37,2013-02-19 13:27:00,
2013-02-19 05:32:00,42.8,38.9,29.88,NW,310,0.2,1.1,86,0.04,RA,,0.04,0.0,WeatherDisplay:10.37,2013-02-19 13:32:00,
2013-02-19 05:37:00,43.1,39.2,29.88,NW,310,0.5,2.3,86,0.04,RA,,0.04,0.0,WeatherDisplay:10.37,2013-02-19 13:37:00,
2013-02-19 05:42:00,43.4,39.8,29.88,NW,309,0.8,2.3,87,0.04,,,0.04,0.0,WeatherDisplay:10.37,2013-02-19 13:42:00,
2013-02-19 05:47:00,43.5,39.9,29.88,SSW,211,2.2,3.5,87,0.04,,,0.04,0.0,WeatherDisplay:10.37,2013-02-19 13:47:00,
2013-02-19 05:52:00,43.8,40.2,29.87,SSW,202,4.2,8.1,87,0.04,,,0.04,0.0,WeatherDisplay:10.37,2013-02-19 13:52:00,
2013-02-19 05:57:00,44.1,40.2,29.87,SSW,210,6.1,6.1,86,0.04,,,0.04,0.0,WeatherDisplay:10.37,2013-02-19 13:57:00,
2013-02-19 06:02:00,44.5,40.6,29.87,South,186,2.9,3.5,86,0.03,,,0.04,0.0,WeatherDisplay:10.37,2013-02-19 14:02:00,
2013-02-19 06:07:00,44.6,40.7,29.87,South,188,3.6,4.6,86,0.03,,,0.04,0.0,WeatherDisplay:10.37,2013-02-19 14:07:00,
2013-02-19 06:12:00,43.5,39.3,29.87,ESE,109,1.8,6.9,85,0.03,,,0.04,0.0,WeatherDisplay:10.37,2013-02-19 14:12:00,
2013-02-19 06:17:00,43.8,39.3,29.86,ESE,115,0.3,0.0,84,0.02,,,0.04,0.0,WeatherDisplay:10.37,2013-02-19 14:17:00,
2013-02-19 06:22:00,43.8,39.3,29.86,East,98,0.1,2.3,84,0.02,,,0.04,0.0,WeatherDisplay:10.37,2013-02-19 14:22:00,
2013-02-19 06:27:00,43.8,39.3,29.86,ESE,104,0.5,2.3,84,0.02,,,0.04,0.0,WeatherDisplay:10.37,2013-02-19 14:27:00,
2013-02-19 06:32:00,44.0,39.5,29.86,NE,42,0.1,2.3,84,0.00,,,0.04,0.0,WeatherDisplay:10.37,2013-02-19 14:32:00,
2013-02-19 06:37:00,44.1,39.3,29.85,ESE,123,0.0,1.1,83,0.00,,,0.04,0.0,WeatherDisplay:10.37,2013-02-19 14:37:00,
2013-02-19 06:42:00,44.2,39.7,29.85,ESE,104,1.2,3.5,84,0.00,,,0.04,0.0,WeatherDisplay:10.37,2013-02-19 14:42:00,
2013-02-19 06:47:00,44.4,39.6,29.85,ENE,69,1.3,2.3,83,0.00,,,0.04,0.0,WeatherDisplay:10.37,2013-02-19 14:47:00,
2013-02-19 06:52:00,44.4,39.6,29.84,ENE,66,0.5,2.3,83,0.01,RA,,0.05,0.0,WeatherDisplay:10.37,2013-02-19 14:52:00,
2013-02-19 06:57:00,44.4,39.9,29.84,ESE,109,0.8,3.5,84,0.01,RA,,0.05,0.0,WeatherDisplay:10.37,2013-02-19 14:57:00,
2013-02-19 07:02:00,44.4,39.9,29.84,ESE,111,0.0,0.0,84,0.01,,,0.05,0.0,WeatherDisplay:10.37,2013-02-19 15:02:00,
2013-02-19 07:07:00,44.5,39.7,29.83,ESE,121,3.8,9.2,83,0.01,,,0.05,0.0,WeatherDisplay:10.37,2013-02-19 15:07:00,
2013-02-19 07:12:00,45.0,39.8,29.83,SE,144,2.0,6.9,82,0.01,,,0.05,0.0,WeatherDisplay:10.37,2013-02-19 15:12:00,
2013-02-19 07:17:00,45.0,39.8,29.83,ENE,76,1.6,11.5,82,0.01,,,0.05,0.0,WeatherDisplay:10.37,2013-02-19 15:17:00,
2013-02-19 07:22:00,45.0,39.8,29.83,ESE,117,1.8,3.5,82,0.01,,,0.05,0.0,WeatherDisplay:10.37,2013-02-19 15:22:00,
2013-02-19 07:27:00,44.8,39.3,29.83,SE,144,3.2,6.9,81,0.01,,,0.05,0.0,WeatherDisplay:10.37,2013-02-19 15:27:00,
2013-02-19 07:32:00,44.8,39.6,29.83,ESE,122,0.0,2.3,82,0.01,,,0.05,0.0,WeatherDisplay:10.37,2013-02-19 15:32:00,
2013-02-19 07:37:00,44.7,39.9,29.83,SSE,152,3.0,8.1,83,0.03,RA,,0.07,0.0,WeatherDisplay:10.37,2013-02-19 15:37:00,
2013-02-19 07:42:00,44.7,39.9,29.83,SSE,155,2.2,10.4,83,0.03,RA,,0.07,0.0,WeatherDisplay:10.37,2013-02-19 15:42:00,
2013-02-19 07:47:00,44.8,39.6,29.83,ENE,66,4.3,9.0,82,0.03,,,0.07,0.0,WeatherDisplay:10.37,2013-02-19 15:47:00,
2013-02-19 07:52:00,45.0,39.5,29.83,East,98,0.5,3.5,81,0.02,,,0.07,0.0,WeatherDisplay:10.37,2013-02-19 15:52:00,
2013-02-19 07:57:00,45.0,39.5,29.83,SE,134,3.3,4.6,81,0.02,,,0.07,0.0,WeatherDisplay:10.37,2013-02-19 15:57:00,
2013-02-19 08:02:00,44.8,39.3,29.83,SSW,201,2.5,4.6,81,0.04,RA,,0.09,0.0,WeatherDisplay:10.37,2013-02-19 16:02:00,
2013-02-19 08:07:00,44.4,38.9,29.83,East,101,1.2,11.5,81,0.06,RA,,0.11,0.0,WeatherDisplay:10.37,2013-02-19 16:07:00,
2013-02-19 08:12:00,43.8,39.0,29.83,South,173,0.3,1.1,83,0.09,RA,,0.14,0.0,WeatherDisplay:10.37,2013-02-19 16:12:00,
2013-02-19 08:17:00,43.5,39.0,29.83,SSE,165,0.7,2.3,84,0.10,RA,,0.15,0.0,WeatherDisplay:10.37,2013-02-19 16:17:00,
2013-02-19 08:22:00,43.4,38.9,29.83,SSE,162,0.3,1.1,84,0.10,RA,,0.15,0.0,WeatherDisplay:10.37,2013-02-19 16:22:00,
2013-02-19 08:27:00,43.4,39.2,29.83,SSE,162,0.0,0.0,85,0.10,RA,,0.15,0.0,WeatherDisplay:10.37,2013-02-19 16:27:00,
2013-02-19 08:32:00,43.4,39.5,29.82,SSE,162,0.0,0.0,86,0.10,OVC,,0.15,0.0,WeatherDisplay:10.37,2013-02-19 16:32:00,
2013-02-19 08:37:00,43.4,39.5,29.82,ENE,74,1.4,1.4,86,0.09,RA,,0.16,0.0,WeatherDisplay:10.37,2013-02-19 16:37:00,
2013-02-19 08:42:00,43.4,39.5,29.82,ESE,111,3.3,4.0,86,0.11,RA,,0.18,0.0,WeatherDisplay:10.37,2013-02-19 16:42:00,
2013-02-19 08:47:00,43.4,39.5,29.82,SSW,207,1.4,3.5,86,0.12,RA,,0.19,0.0,WeatherDisplay:10.37,2013-02-19 16:47:00,
2013-02-19 08:52:00,43.2,39.6,29.82,East,101,1.4,2.3,87,0.13,RA,,0.21,0.0,WeatherDisplay:10.37,2013-02-19 16:52:00,
2013-02-19 08:57:00,43.1,39.2,29.82,WSW,246,1.5,4.6,86,0.14,RA,,0.22,0.0,WeatherDisplay:10.37,2013-02-19 16:57:00,
2013-02-19 09:02:00,42.9,39.0,29.82,ESE,111,1.9,3.5,86,0.14,RA,,0.24,0.0,WeatherDisplay:10.37,2013-02-19 17:02:00,
2013-02-19 09:07:00,42.8,38.6,29.82,NE,34,0.0,0.0,85,0.14,RA,,0.25,0.0,WeatherDisplay:10.37,2013-02-19 17:07:00,
2013-02-19 09:12:00,42.8,38.9,29.81,SSE,167,0.2,3.5,86,0.11,RA,,0.25,0.0,WeatherDisplay:10.37,2013-02-19 17:12:00,
2013-02-19 09:17:00,42.8,38.9,29.81,South,186,0.0,0.0,86,0.10,OVC,,0.25,0.0,WeatherDisplay:10.37,2013-02-19 17:17:00,
2013-02-19 09:22:00,43.2,39.3,29.82,SSW,201,0.4,2.3,86,0.10,OVC,,0.25,0.0,WeatherDisplay:10.37,2013-02-19 17:22:00,
2013-02-19 09:27:00,43.4,39.5,29.82,SSW,204,0.3,1.1,86,0.12,RA,,0.27,0.0,WeatherDisplay:10.37,2013-02-19 17:27:00,
2013-02-19 09:32:00,42.9,39.0,29.82,SE,126,2.0,4.6,86,0.14,RA,,0.29,0.0,WeatherDisplay:10.37,2013-02-19 17:32:00,
2013-02-19 09:37:00,42.8,39.2,29.81,SW,229,1.7,3.5,87,0.13,RA,,0.29,0.0,WeatherDisplay:10.37,2013-02-19 17:37:00,
2013-02-19 09:42:00,42.9,39.3,29.81,SW,217,0.8,3.5,87,0.11,OVC,,0.29,0.0,WeatherDisplay:10.37,2013-02-19 17:42:00,
2013-02-19 09:47:00,43.1,39.8,29.81,WSW,257,0.3,2.0,88,0.10,OVC,,0.29,0.0,WeatherDisplay:10.37,2013-02-19 17:47:00,
2013-02-19 09:52:00,43.1,39.8,29.81,SSE,168,1.3,0.0,88,0.09,OVC,,0.29,0.0,WeatherDisplay:10.37,2013-02-19 17:52:00,
2013-02-19 09:57:00,43.1,39.8,29.81,SW,232,1.7,3.5,88,0.07,OVC,,0.29,0.0,WeatherDisplay:10.37,2013-02-19 17:57:00,
2013-02-19 10:02:00,42.9,39.3,29.81,South,175,1.1,4.6,87,0.06,OVC,,0.29,0.0,WeatherDisplay:10.37,2013-02-19 18:02:00,
2013-02-19 10:07:00,42.8,39.2,29.81,SSE,161,0.3,1.1,87,0.04,OVC,,0.29,0.0,WeatherDisplay:10.37,2013-02-19 18:07:00,
2013-02-19 10:12:00,42.6,38.7,29.81,North,8,0.3,1.1,86,0.04,OVC,,0.29,0.0,WeatherDisplay:10.37,2013-02-19 18:12:00,
2013-02-19 10:17:00,43.7,39.5,29.81,WNW,285,1.1,0.0,85,0.04,OVC,,0.29,0.0,WeatherDisplay:10.37,2013-02-19 18:17:00,
2013-02-19 10:22:00,43.5,39.3,29.81,NNE,22,1.2,3.5,85,0.05,RA,,0.30,149.0,WeatherDisplay:10.37,2013-02-19 18:22:00,
2013-02-19 10:27:00,43.7,39.5,29.81,North,5,0.1,2.3,85,0.03,RA,,0.30,127.0,WeatherDisplay:10.37,2013-02-19 18:27:00,
2013-02-19 10:32:00,43.8,39.3,29.81,WSW,257,0.7,3.5,84,0.02,BKN,,0.30,113.0,WeatherDisplay:10.37,2013-02-19 18:32:00,
2013-02-19 10:37:00,43.7,39.2,29.81,NNW,334,0.4,2.3,84,0.01,BKN,,0.30,156.0,WeatherDisplay:10.37,2013-02-19 18:37:00,
2013-02-19 10:42:00,44.0,39.5,29.81,West,273,0.0,2.3,84,0.01,BKN,,0.30,192.0,WeatherDisplay:10.37,2013-02-19 18:42:00,
2013-02-19 10:47:00,44.4,39.9,29.81,West,273,0.1,0.0,84,0.01,BKN,,0.30,148.0,WeatherDisplay:10.37,2013-02-19 18:47:00,
2013-02-19 10:52:00,44.5,40.0,29.81,West,273,0.0,0.0,84,0.01,BKN,,0.30,179.0,WeatherDisplay:10.37,2013-02-19 18:52:00,
2013-02-19 10:57:00,44.4,39.2,29.81,West,273,0.0,1.1,82,0.01,BKN,,0.30,134.0,WeatherDisplay:10.37,2013-02-19 18:57:00,
2013-02-19 11:02:00,44.6,39.1,29.81,West,273,0.5,1.1,81,0.01,BKN,,0.30,218.0,WeatherDisplay:10.37,2013-02-19 19:02:00,
2013-02-19 11:07:00,45.1,39.6,29.81,West,271,3.6,4.6,81,0.01,BKN,,0.30,137.0,WeatherDisplay:10.37,2013-02-19 19:07:00,
2013-02-19 11:12:00,44.8,39.0,29.81,NNW,330,0.3,3.5,80,0.01,BKN,,0.30,109.0,WeatherDisplay:10.37,2013-02-19 19:12:00,
2013-02-19 11:17:00,44.9,39.4,29.80,NNW,330,0.0,1.1,81,0.01,BKN,,0.30,209.0,WeatherDisplay:10.37,2013-02-19 19:17:00,
2013-02-19 11:22:00,45.2,39.7,29.80,NNW,330,0.0,0.0,81,0.00,BKN,,0.30,262.0,WeatherDisplay:10.37,2013-02-19 19:22:00,
2013-02-19 11:27:00,45.4,39.9,29.80,NNW,330,0.0,3.5,81,0.00,BKN,,0.30,160.0,WeatherDisplay:10.37,2013-02-19 19:27:00,
2013-02-19 11:32:00,45.6,40.1,29.82,SSW,202,3.9,12.0,81,0.01,RA,,0.31,30.0,WeatherDisplay:10.37,2013-02-19 19:32:00,
2013-02-19 11:37:00,44.3,38.2,29.82,West,272,2.5,3.5,79,0.04,RA,,0.34,39.0,WeatherDisplay:10.37,2013-02-19 19:37:00,
2013-02-19 11:42:00,43.4,37.6,29.81,SSW,199,4.1,5.8,80,0.05,RA,,0.35,132.0,WeatherDisplay:10.37,2013-02-19 19:42:00,
2013-02-19 11:47:00,43.0,37.9,29.80,SSE,163,0.3,1.1,82,0.05,RA,,0.35,287.0,WeatherDisplay:10.37,2013-02-19 19:47:00,
2013-02-19 11:52:00,43.1,38.0,29.80,WNW,302,0.1,0.0,82,0.05,BKN,,0.35,202.0,WeatherDisplay:10.37,2013-02-19 19:52:00,
2013-02-19 11:57:00,43.2,38.1,29.80,WNW,288,2.0,3.5,82,0.05,BKN,,0.35,232.0,WeatherDisplay:10.37,2013-02-19 19:57:00,
2013-02-19 12:02:00,43.5,38.4,29.80,WNW,296,0.1,1.1,82,0.05,SCT,,0.35,341.0,WeatherDisplay:10.37,2013-02-19 20:02:00,
2013-02-19 12:07:00,43.9,38.4,29.80,West,280,1.9,6.9,81,0.05,BKN,,0.35,258.0,WeatherDisplay:10.37,2013-02-19 20:07:00,
2013-02-19 12:12:00,43.9,38.4,29.79,WNW,290,7.6,7.6,81,0.05,BKN,,0.35,190.0,WeatherDisplay:10.37,2013-02-19 20:12:00,
2013-02-19 12:18:00,43.6,37.8,29.80,NW,312,2.8,4.6,80,0.05,BKN,,0.35,102.0,WeatherDisplay:10.37,2013-02-19 20:18:00,
2013-02-19 12:23:00,43.3,37.5,29.80,WNW,284,3.7,8.1,80,0.05,BKN,,0.35,90.0,WeatherDisplay:10.37,2013-02-19 20:23:00,
2013-02-19 12:28:00,43.1,37.3,29.80,WNW,292,3.0,5.8,80,0.06,RA,,0.36,111.0,WeatherDisplay:10.37,2013-02-19 20:28:00,
2013-02-19 12:34:00,42.9,37.5,29.80,WNW,294,7.1,7.1,81,0.03,RA,,0.36,83.0,WeatherDisplay:10.37,2013-02-19 20:34:00,
2013-02-19 12:39:00,42.5,36.8,29.80,WNW,302,3.1,10.4,80,0.02,BKN,,0.36,104.0,WeatherDisplay:10.37,2013-02-19 20:39:00,
2013-02-19 12:44:00,42.2,36.5,29.79,West,265,1.5,3.5,80,0.01,BKN,,0.36,193.0,WeatherDisplay:10.37,2013-02-19 20:44:00,
2013-02-19 12:49:00,42.6,37.2,29.78,North,360,0.0,1.1,81,0.02,RA,,0.37,237.0,WeatherDisplay:10.37,2013-02-19 20:49:00,
2013-02-19 12:54:00,42.6,37.2,29.79,NNW,331,0.0,1.1,81,0.02,RA,,0.37,216.0,WeatherDisplay:10.37,2013-02-19 20:54:00,
2013-02-19 12:59:00,42.9,37.2,29.78,WNW,303,4.5,5.8,80,0.02,BKN,,0.37,207.0,WeatherDisplay:10.37,2013-02-19 20:59:00,
2013-02-19 13:04:00,43.0,37.3,29.78,WNW,286,4.3,5.8,80,0.02,BKN,,0.37,179.0,WeatherDisplay:10.37,2013-02-19 21:04:00,
2013-02-19 13:09:00,43.3,37.5,29.77,West,263,0.4,2.3,80,0.02,BKN,,0.37,155.0,WeatherDisplay:10.37,2013-02-19 21:09:00,
2013-02-19 13:14:00,43.5,37.7,29.77,West,273,1.5,5.0,80,0.02,BKN,,0.37,301.0,WeatherDisplay:10.37,2013-02-19 21:14:00,
2013-02-19 13:20:00,43.6,37.5,29.77,South,189,3.6,6.9,79,0.02,SCT,,0.37,339.0,WeatherDisplay:10.37,2013-02-19 21:20:00,
2013-02-19 13:25:00,44.2,38.1,29.77,West,267,1.4,5.8,79,0.02,SCT,,0.37,432.0,WeatherDisplay:10.37,2013-02-19 21:25:00,
2013-02-19 13:30:00,45.3,39.8,29.77,SW,233,1.3,3.5,81,0.01,CLR,,0.37,621.0,WeatherDisplay:10.37,2013-02-19 21:30:00,
2013-02-19 13:35:00,46.3,39.5,29.77,West,271,4.0,8.1,77,0.01,SCT,,0.37,378.0,WeatherDisplay:10.37,2013-02-19 21:35:00,
2013-02-19 13:40:00,46.7,39.9,29.76,SSW,197,1.5,3.5,77,0.01,SCT,,0.37,399.0,WeatherDisplay:10.37,2013-02-19 21:40:00,
2013-02-19 13:45:00,46.9,39.4,29.77,WSW,245,0.9,3.5,75,0.01,SCT,,0.37,334.0,WeatherDisplay:10.37,2013-02-19 21:45:00,
2013-02-19 13:50:00,47.0,39.1,29.76,SSE,166,0.2,3.5,74,0.00,SCT,,0.37,403.0,WeatherDisplay:10.37,2013-02-19 21:50:00,
2013-02-19 13:55:00,47.7,38.4,29.76,West,270,3.0,5.8,70,0.00,CLR,,0.37,594.0,WeatherDisplay:10.37,2013-02-19 21:55:00,
2013-02-19 14:00:00,47.5,38.2,29.76,WNW,286,3.0,7.0,70,0.00,CLR,,0.37,710.0,WeatherDisplay:10.37,2013-02-19 22:00:00,
2013-02-19 14:05:00,47.6,36.8,29.75,NW,309,1.9,3.5,66,0.00,CLR,,0.37,680.0,WeatherDisplay:10.37,2013-02-19 22:05:00,
2013-02-19 14:10:00,48.4,38.7,29.75,North,355,1.3,3.5,69,0.00,CLR,,0.37,693.0,WeatherDisplay:10.37,2013-02-19 22:10:00,
2013-02-19 14:15:00,48.9,38.0,29.75,SSW,198,1.8,2.3,66,0.00,CLR,,0.37,729.0,WeatherDisplay:10.37,2013-02-19 22:15:00,
2013-02-19 14:20:00,49.5,37.0,29.75,South,191,1.3,3.5,62,0.00,CLR,,0.37,835.0,WeatherDisplay:10.37,2013-02-19 22:20:00,
2013-02-19 14:25:00,49.3,36.4,29.75,West,279,4.0,5.8,61,0.00,CLR,,0.37,264.0,WeatherDisplay:10.37,2013-02-19 22:25:00,
2013-02-19 14:30:00,48.2,35.0,29.75,WNW,292,9.3,15.0,60,0.00,BKN,,0.37,174.0,WeatherDisplay:10.37,2013-02-19 22:30:00,
2013-02-19 14:35:00,47.2,34.4,29.75,WNW,287,1.3,3.5,61,0.00,BKN,,0.37,202.0,WeatherDisplay:10.37,2013-02-19 22:35:00,
2013-02-19 14:40:00,47.2,35.2,29.75,West,259,2.6,8.1,63,0.00,BKN,,0.37,190.0,WeatherDisplay:10.37,2013-02-19 22:40:00,
2013-02-19 14:45:00,46.9,35.0,29.75,West,261,3.3,6.9,63,0.00,BKN,,0.37,95.0,WeatherDisplay:10.37,2013-02-19 22:45:00,
2013-02-19 14:50:00,46.7,34.8,29.75,SSW,199,1.4,3.5,63,0.00,CLR,,0.37,594.0,WeatherDisplay:10.37,2013-02-19 22:50:00,
2013-02-19 14:55:00,47.4,34.6,29.75,WNW,298,1.3,13.8,61,0.00,CLR,,0.37,615.0,WeatherDisplay:10.37,2013-02-19 22:55:00,
2013-02-19 15:00:00,47.6,34.0,29.75,West,273,5.5,15.0,59,0.00,CLR,,0.37,668.0,WeatherDisplay:10.37,2013-02-19 23:00:00,
2013-02-19 15:05:00,47.2,33.6,29.75,West,270,6.3,13.8,59,0.00,CLR,,0.37,573.0,WeatherDisplay:10.37,2013-02-19 23:05:00,
2013-02-19 15:10:00,47.2,34.4,29.75,NE,51,1.4,3.5,61,0.00,CLR,,0.37,631.0,WeatherDisplay:10.37,2013-02-19 23:10:00,
2013-02-19 15:15:00,47.8,35.4,29.75,West,279,1.5,4.0,62,0.00,CLR,,0.37,504.0,WeatherDisplay:10.37,2013-02-19 23:15:00,
2013-02-19 15:20:00,47.5,34.7,29.75,South,173,1.0,2.3,61,0.00,CLR,,0.37,401.0,WeatherDisplay:10.37,2013-02-19 23:20:00,
2013-02-19 15:25:00,47.4,34.6,29.75,West,276,4.2,4.2,61,0.00,SCT,,0.37,301.0,WeatherDisplay:10.37,2013-02-19 23:25:00,
2013-02-19 15:30:00,46.8,34.0,29.75,NNE,15,5.2,10.4,61,0.00,SCT,,0.37,306.0,WeatherDisplay:10.37,2013-02-19 23:30:00,
2013-02-19 15:35:00,46.4,34.1,29.75,NW,309,2.9,11.5,62,0.00,BKN,,0.37,156.0,WeatherDisplay:10.37,2013-02-19 23:35:00,
2013-02-19 15:40:00,45.9,33.6,29.75,WSW,257,11.2,11.5,62,0.00,BKN,,0.37,100.0,WeatherDisplay:10.37,2013-02-19 23:40:00,
2013-02-19 15:45:00,45.8,34.3,29.75,West,271,1.7,5.0,64,0.00,BKN,,0.37,90.0,WeatherDisplay:10.37,2013-02-19 23:45:00,
2013-02-19 15:50:00,45.7,33.8,29.75,NNE,30,3.6,5.8,63,0.00,BKN,,0.37,118.0,WeatherDisplay:10.37,2013-02-19 23:50:00,
2013-02-19 15:55:00,45.7,34.2,29.75,NW,319,2.7,4.6,64,0.00,BKN,,0.37,97.0,WeatherDisplay:10.37,2013-02-19 23:55:00,
2013-02-19 16:00:00,45.7,34.2,29.75,WSW,248,4.7,12.7,64,0.00,BKN,,0.37,76.0,WeatherDisplay:10.37,2013-02-20 00:00:00,
2013-02-19 16:05:00,45.6,33.3,29.74,WNW,289,1.3,3.5,62,0.00,BKN,,0.37,98.0,WeatherDisplay:10.37,2013-02-20 00:05:00,
2013-02-19 16:10:00,45.9,34.0,29.74,West,276,5.2,10.4,63,0.00,FEW,,0.37,236.0,WeatherDisplay:10.37,2013-02-20 00:10:00,
2013-02-19 16:15:00,45.4,32.7,29.74,West,267,2.4,8.1,61,0.00,BKN,,0.37,86.0,WeatherDisplay:10.37,2013-02-20 00:15:00,
2013-02-19 16:20:00,45.0,32.8,29.74,NW,326,0.8,3.5,62,0.00,BKN,,0.37,35.0,WeatherDisplay:10.37,2013-02-20 00:20:00,
2013-02-19 16:25:00,44.8,32.2,29.74,West,273,0.7,5.8,61,0.00,BKN,,0.37,32.0,WeatherDisplay:10.37,2013-02-20 00:25:00,
2013-02-19 16:30:00,44.7,32.1,29.73,West,270,2.7,6.9,61,0.00,BKN,,0.37,32.0,WeatherDisplay:10.37,2013-02-20 00:30:00,
2013-02-19 16:35:00,44.5,32.3,29.74,SSW,209,1.3,3.5,62,0.00,BKN,,0.37,37.0,WeatherDisplay:10.37,2013-02-20 00:35:00,
2013-02-19 16:40:00,44.4,32.6,29.74,West,271,3.6,5.8,63,0.00,BKN,,0.37,32.0,WeatherDisplay:10.37,2013-02-20 00:40:00,
2013-02-19 16:45:00,44.3,32.9,29.74,WNW,292,0.3,3.5,64,0.00,BKN,,0.37,30.0,WeatherDisplay:10.37,2013-02-20 00:45:00,
2013-02-19 16:50:00,44.1,33.1,29.74,West,279,1.1,5.8,65,0.00,BKN,,0.37,28.0,WeatherDisplay:10.37,2013-02-20 00:50:00,
2013-02-19 16:55:00,43.9,33.3,29.74,WNW,283,0.2,1.1,66,0.00,BKN,,0.37,26.0,WeatherDisplay:10.37,2013-02-20 00:55:00,
2013-02-19 17:00:00,43.8,33.2,29.74,WNW,287,6.3,10.4,66,0.00,BKN,,0.37,23.0,WeatherDisplay:10.37,2013-02-20 01:00:00,
2013-02-19 17:05:00,43.6,33.0,29.74,West,271,1.5,8.1,66,0.00,BKN,,0.37,19.0,WeatherDisplay:10.37,2013-02-20 01:05:00,
2013-02-19 17:10:00,43.5,32.9,29.74,NNW,329,4.5,9.2,66,0.00,BKN,,0.37,18.0,WeatherDisplay:10.37,2013-02-20 01:10:00,
2013-02-19 17:15:00,43.2,33.0,29.74,West,271,1.3,6.9,67,0.00,BKN,,0.37,16.0,WeatherDisplay:10.37,2013-02-20 01:15:00,
2013-02-19 17:20:00,43.0,32.8,29.74,West,261,5.1,6.9,67,0.00,BKN,,0.37,14.0,WeatherDisplay:10.37,2013-02-20 01:20:00,
2013-02-19 17:25:00,42.9,32.7,29.74,WNW,290,3.1,6.0,67,0.00,BKN,,0.37,14.0,WeatherDisplay:10.37,2013-02-20 01:25:00,
2013-02-19 17:30:00,42.8,32.6,29.74,WNW,287,1.8,4.6,67,0.00,BKN,,0.37,12.0,WeatherDisplay:10.37,2013-02-20 01:30:00,
2013-02-19 17:35:00,42.7,32.5,29.74,West,279,4.0,9.2,67,0.00,BKN,,0.37,11.0,WeatherDisplay:10.37,2013-02-20 01:35:00,
2013-02-19 17:40:00,42.6,32.4,29.74,WNW,284,3.4,8.1,67,0.00,BKN,,0.37,9.0,WeatherDisplay:10.37,2013-02-20 01:40:00,
2013-02-19 17:45:00,42.5,32.3,29.74,West,277,3.1,4.6,67,0.00,BKN,,0.37,5.0,WeatherDisplay:10.37,2013-02-20 01:45:00,
2013-02-19 17:50:00,42.4,32.2,29.74,WNW,283,2.3,8.1,67,0.00,BKN,,0.37,5.0,WeatherDisplay:10.37,2013-02-20 01:50:00,
2013-02-19 17:56:00,42.2,32.4,29.74,WNW,297,3.0,8.0,68,0.00,,,0.37,0.0,WeatherDisplay:10.37,2013-02-20 01:56:00,
2013-02-19 18:01:00,42.0,32.6,29.74,West,279,4.4,9.2,69,0.00,,,0.37,0.0,WeatherDisplay:10.37,2013-02-20 02:01:00,
2013-02-19 18:06:00,42.0,32.6,29.74,West,259,1.2,9.2,69,0.00,,,0.37,0.0,WeatherDisplay:10.37,2013-02-20 02:06:00,
2013-02-19 18:11:00,41.8,32.4,29.75,NNE,30,1.4,4.6,69,0.00,,,0.37,0.0,WeatherDisplay:10.37,2013-02-20 02:11:00,
2013-02-19 18:16:00,41.7,33.7,29.75,WNW,303,4.6,10.4,73,0.00,,,0.37,0.0,WeatherDisplay:10.37,2013-02-20 02:16:00,
2013-02-19 18:21:00,41.6,32.5,29.75,NW,319,0.2,3.5,70,0.00,,,0.37,0.0,WeatherDisplay:10.37,2013-02-20 02:21:00,
2013-02-19 18:26:00,41.4,32.3,29.75,WNW,284,2.9,6.9,70,0.00,,,0.37,0.0,WeatherDisplay:10.37,2013-02-20 02:26:00,
2013-02-19 18:31:00,41.4,32.3,29.75,WSW,249,2.7,3.5,70,0.00,,,0.37,0.0,WeatherDisplay:10.37,2013-02-20 02:31:00,
2013-02-19 18:36:00,41.4,32.7,29.75,West,281,1.5,3.5,71,0.00,,,0.37,0.0,WeatherDisplay:10.37,2013-02-20 02:36:00,
2013-02-19 18:41:00,41.4,32.7,29.75,West,279,2.5,6.9,71,0.00,,,0.37,0.0,WeatherDisplay:10.37,2013-02-20 02:41:00,
2013-02-19 18:46:00,41.4,32.7,29.75,NW,314,1.8,4.6,71,0.00,,,0.37,0.0,WeatherDisplay:10.37,2013-02-20 02:46:00,
2013-02-19 18:52:00,41.3,32.6,29.75,WNW,288,2.7,5.8,71,0.00,,,0.37,0.0,WeatherDisplay:10.37,2013-02-20 02:52:00,
2013-02-19 18:57:00,41.3,32.6,29.75,WNW,286,0.3,3.5,71,0.00,,,0.37,0.0,WeatherDisplay:10.37,2013-02-20 02:57:00,
2013-02-19 19:02:00,41.3,32.6,29.75,NW,322,1.3,6.9,71,0.00,,,0.37,0.0,WeatherDisplay:10.37,2013-02-20 03:02:00,
2013-02-19 19:07:00,41.3,32.6,29.75,WNW,292,2.0,3.5,71,0.00,,,0.37,0.0,WeatherDisplay:10.37,2013-02-20 03:07:00,
2013-02-19 19:12:00,41.2,32.5,29.76,West,265,1.1,5.8,71,0.00,,,0.37,0.0,WeatherDisplay:10.37,2013-02-20 03:12:00,
2013-02-19 19:17:00,41.1,32.8,29.76,WNW,297,0.7,3.5,72,0.00,,,0.37,0.0,WeatherDisplay:10.37,2013-02-20 03:17:00,
2013-02-19 19:22:00,40.9,32.6,29.76,NW,322,4.5,10.4,72,0.00,,,0.37,0.0,WeatherDisplay:10.37,2013-02-20 03:22:00,
2013-02-19 19:28:00,41.0,32.7,29.76,WNW,291,1.8,2.3,72,0.00,,,0.37,0.0,WeatherDisplay:10.37,2013-02-20 03:28:00,
2013-02-19 19:34:00,41.0,32.7,29.76,WNW,290,0.4,5.8,72,0.00,,,0.37,0.0,WeatherDisplay:10.37,2013-02-20 03:34:00,
2013-02-19 19:39:00,41.0,32.7,29.76,West,279,0.8,3.0,72,0.00,,,0.37,0.0,WeatherDisplay:10.37,2013-02-20 03:39:00,
2013-02-19 19:44:00,41.0,32.7,29.77,WNW,284,1.8,4.0,72,0.00,,,0.37,0.0,WeatherDisplay:10.37,2013-02-20 03:44:00,
2013-02-19 19:49:00,41.0,32.7,29.76,WNW,296,2.8,5.8,72,0.00,,,0.37,0.0,WeatherDisplay:10.37,2013-02-20 03:49:00,
2013-02-19 19:54:00,41.0,32.7,29.76,West,261,2.7,4.6,72,0.00,,,0.37,0.0,WeatherDisplay:10.37,2013-02-20 03:54:00,
2013-02-19 19:59:00,41.0,32.7,29.77,WNW,284,3.6,3.6,72,0.00,,,0.37,0.0,WeatherDisplay:10.37,2013-02-20 03:59:00,
2013-02-19 20:04:00,40.8,32.1,29.77,West,263,0.6,2.3,71,0.00,,,0.37,0.0,WeatherDisplay:10.37,2013-02-20 04:04:00,
2013-02-19 20:09:00,40.8,32.1,29.77,WNW,288,4.8,6.9,71,0.00,,,0.37,0.0,WeatherDisplay:10.37,2013-02-20 04:09:00,
2013-02-19 20:14:00,40.8,32.1,29.77,WNW,283,3.1,5.8,71,0.00,,,0.37,0.0,WeatherDisplay:10.37,2013-02-20 04:14:00,
2013-02-19 20:19:00,40.8,31.8,29.77,West,280,0.5,1.1,70,0.00,,,0.37,0.0,WeatherDisplay:10.37,2013-02-20 04:19:00,
2013-02-19 20:24:00,40.7,32.0,29.77,West,280,0.1,2.3,71,0.00,,,0.37,0.0,WeatherDisplay:10.37,2013-02-20 04:24:00,
2013-02-19 20:29:00,40.6,31.9,29.78,North,360,0.0,0.0,71,0.00,,,0.37,0.0,WeatherDisplay:10.37,2013-02-20 04:29:00,
2013-02-19 20:34:00,40.6,31.6,29.78,WNW,302,0.2,1.1,70,0.00,,,0.37,0.0,WeatherDisplay:10.37,2013-02-20 04:34:00,
2013-02-19 20:39:00,40.5,31.5,29.78,WNW,291,4.1,5.8,70,0.00,,,0.37,0.0,WeatherDisplay:10.37,2013-02-20 04:39:00,
2013-02-19 20:44:00,40.6,31.2,29.78,West,281,0.0,5.8,69,0.00,,,0.37,0.0,WeatherDisplay:10.37,2013-02-20 04:44:00,
2013-02-19 20:49:00,40.5,31.1,29.78,North,350,0.6,2.3,69,0.00,,,0.37,0.0,WeatherDisplay:10.37,2013-02-20 04:49:00,
2013-02-19 20:54:00,40.5,31.1,29.78,WSW,254,2.0,3.5,69,0.00,,,0.37,0.0,WeatherDisplay:10.37,2013-02-20 04:54:00,
2013-02-19 20:59:00,40.5,31.1,29.78,WNW,298,2.3,6.9,69,0.00,,,0.37,0.0,WeatherDisplay:10.37,2013-02-20 04:59:00,
2013-02-19 21:00:00,40.5,31.1,29.78,WNW,289,1.6,5.0,69,0.00,,,0.37,0.0,WeatherDisplay:10.37,2013-02-20 05:00:00,
2013-02-19 21:01:00,40.6,31.2,29.78,West,259,3.9,5.8,69,0.00,,,0.37,0.0,WeatherDisplay:10.37,2013-02-20 05:01:00,
2013-02-19 21:03:00,40.5,31.1,29.78,West,269,2.9,8.1,69,0.00,,,0.37,0.0,WeatherDisplay:10.37,2013-02-20 05:03:00,
2013-02-19 21:06:00,40.5,31.2,29.78,West,280,1.0,8.0,69,0.00,,,0.37,0.0,WeatherDisplay:10.37,2013-02-20 05:06:00,
2013-02-19 21:11:00,40.5,31.1,29.79,NNW,340,1.3,3.5,69,0.00,,,0.37,0.0,WeatherDisplay:10.37,2013-02-20 05:11:00,
2013-02-19 21:16:00,40.5,31.1,29.79,NW,322,0.2,2.0,69,0.00,,,0.37,0.0,WeatherDisplay:10.37,2013-02-20 05:16:00,
2013-02-19 21:21:00,40.3,31.3,29.79,WNW,294,0.2,1.0,70,0.00,,,0.37,0.0,WeatherDisplay:10.37,2013-02-20 05:21:00,
2013-02-19 21:26:00,40.2,31.2,29.80,WNW,286,0.0,0.0,70,0.00,,,0.37,0.0,WeatherDisplay:10.37,2013-02-20 05:26:00,
2013-02-19 21:31:00,40.0,31.4,29.80,WNW,286,0.0,0.0,71,0.00,,,0.37,0.0,WeatherDisplay:10.37,2013-02-20 05:31:00,
2013-02-19 21:36:00,39.9,31.3,29.80,West,279,2.3,4.6,71,0.00,,,0.37,0.0,WeatherDisplay:10.37,2013-02-20 05:36:00,
2013-02-19 21:41:00,39.9,31.3,29.80,West,281,0.0,0.0,71,0.00,,,0.37,0.0,WeatherDisplay:10.37,2013-02-20 05:41:00,
2013-02-19 21:46:00,39.8,31.2,29.80,West,281,0.0,1.1,71,0.00,,,0.37,0.0,WeatherDisplay:10.37,2013-02-20 05:46:00,
2013-02-19 21:51:00,39.8,31.2,29.80,West,281,2.4,3.5,71,0.00,,,0.37,0.0,WeatherDisplay:10.37,2013-02-20 05:51:00,
2013-02-19 21:56:00,39.6,31.0,29.80,West,281,1.1,3.5,71,0.00,,,0.37,0.0,WeatherDisplay:10.37,2013-02-20 05:56:00,
2013-02-19 22:01:00,39.6,31.0,29.80,West,271,1.1,3.5,71,0.00,,,0.37,0.0,WeatherDisplay:10.37,2013-02-20 06:01:00,
2013-02-19 22:06:00,39.8,30.8,29.81,West,279,2.0,3.5,70,0.00,,,0.37,0.0,WeatherDisplay:10.37,2013-02-20 06:06:00,
2013-02-19 22:11:00,40.0,31.0,29.81,WNW,283,3.5,8.1,70,0.00,,,0.37,0.0,WeatherDisplay:10.37,2013-02-20 06:11:00,
2013-02-19 22:16:00,40.0,30.6,29.81,WNW,294,4.1,6.0,69,0.00,,,0.37,0.0,WeatherDisplay:10.37,2013-02-20 06:16:00,
2013-02-19 22:21:00,40.0,30.6,29.81,West,267,3.3,4.6,69,0.00,,,0.37,0.0,WeatherDisplay:10.37,2013-02-20 06:21:00,
2013-02-19 22:26:00,40.1,30.7,29.81,West,271,2.0,6.9,69,0.00,,,0.37,0.0,WeatherDisplay:10.37,2013-02-20 06:26:00,
2013-02-19 22:31:00,40.2,30.8,29.81,WNW,292,0.9,4.6,69,0.00,,,0.37,0.0,WeatherDisplay:10.37,2013-02-20 06:31:00,
2013-02-19 22:36:00,40.1,30.7,29.81,West,264,0.0,0.0,69,0.00,,,0.37,0.0,WeatherDisplay:10.37,2013-02-20 06:36:00,
2013-02-19 22:41:00,39.9,30.5,29.81,West,265,0.7,3.5,69,0.00,,,0.37,0.0,WeatherDisplay:10.37,2013-02-20 06:41:00,
2013-02-19 22:46:00,39.8,30.5,29.82,WNW,290,0.0,1.1,69,0.00,,,0.37,0.0,WeatherDisplay:10.37,2013-02-20 06:46:00,
2013-02-19 22:51:00,39.8,30.5,29.82,West,281,0.1,3.5,69,0.00,,,0.37,0.0,WeatherDisplay:10.37,2013-02-20 06:51:00,
2013-02-19 22:56:00,39.7,30.4,29.82,WNW,282,0.2,0.0,69,0.00,,,0.37,0.0,WeatherDisplay:10.37,2013-02-20 06:56:00,
2013-02-19 23:01:00,39.4,30.4,29.82,West,271,0.0,0.0,70,0.00,,,0.37,0.0,WeatherDisplay:10.37,2013-02-20 07:01:00,
2013-02-19 23:06:00,39.0,30.4,29.82,West,271,0.1,0.0,71,0.00,,,0.37,0.0,WeatherDisplay:10.37,2013-02-20 07:06:00,
2013-02-19 23:11:00,38.7,30.4,29.82,West,271,0.1,1.1,72,0.00,,,0.37,0.0,WeatherDisplay:10.37,2013-02-20 07:11:00,
2013-02-19 23:16:00,38.6,30.7,29.83,WNW,298,0.7,2.3,73,0.00,,,0.37,0.0,WeatherDisplay:10.37,2013-02-20 07:16:00,
2013-02-19 23:21:00,38.9,30.6,29.83,West,276,1.3,3.5,72,0.00,,,0.37,0.0,WeatherDisplay:10.37,2013-02-20 07:21:00,
2013-02-19 23:26:00,39.1,30.8,29.83,West,265,1.3,3.5,72,0.00,,,0.37,0.0,WeatherDisplay:10.37,2013-02-20 07:26:00,
2013-02-19 23:31:00,39.3,30.7,29.83,West,265,0.1,3.5,71,0.00,,,0.37,0.0,WeatherDisplay:10.37,2013-02-20 07:31:00,
2013-02-19 23:36:00,39.1,30.5,29.83,West,265,0.0,0.0,71,0.00,,,0.37,0.0,WeatherDisplay:10.37,2013-02-20 07:36:00,
2013-02-19 23:41:00,38.7,30.4,29.84,West,265,0.0,0.0,72,0.00,,,0.37,0.0,WeatherDisplay:10.37,2013-02-20 07:41:00,
2013-02-19 23:46:00,38.3,30.4,29.84,West,265,0.4,1.1,73,0.00,,,0.37,0.0,WeatherDisplay:10.37,2013-02-20 07:46:00,
2013-02-19 23:51:00,38.3,30.4,29.84,West,280,0.0,2.3,73,0.00,,,0.37,0.0,WeatherDisplay:10.37,2013-02-20 07:51:00,
2013-02-19 23:56:00,38.4,30.5,29.84,WNW,288,2.4,5.8,73,0.00,,,0.37,0.0,WeatherDisplay:10.37,2013-02-20 07:56:00,